N614CB KCRQ-KBUR
Flight info
| Callsign | N614CB |
|---|---|
| Flight time | 0h 36m |
| Altitude | 8000 |
| Route | OCN V23 POPPR SMO SILEX |
| Aircraft | SF50/L-V/N |
Departure
| Time | 2026-05-08 23:35 |
|---|---|
| Airport | McClellan-Palomar Airport (KCRQ) |
Arrival
| Time | 2026-05-09 00:11 |
|---|---|
| Airport | Hollywood Burbank/Bob Hope Airport (KBUR) |
| Time | Latitude | Longitude | Altitude | Speed | Heading |
|---|---|---|---|---|---|
| 2026-05-08 23:07 | 33.12817 | -117.27340 | 325 ft | 0 kts | 172° |
| 2026-05-08 23:33 | 33.12806 | -117.27330 | 324 ft | 8 kts | 95° |
| 2026-05-08 23:33 | 33.12827 | -117.27261 | 324 ft | 8 kts | 50° |
| 2026-05-08 23:33 | 33.12863 | -117.27256 | 326 ft | 0 kts | 340° |
| 2026-05-08 23:34 | 33.12932 | -117.27280 | 328 ft | 18 kts | 321° |
| 2026-05-08 23:34 | 33.12914 | -117.27474 | 328 ft | 54 kts | 260° |
| 2026-05-08 23:34 | 33.12799 | -117.28219 | 470 ft | 112 kts | 260° |
| 2026-05-08 23:35 | 33.12681 | -117.29131 | 1022 ft | 118 kts | 262° |
| 2026-05-08 23:35 | 33.12487 | -117.30145 | 1513 ft | 127 kts | 255° |
| 2026-05-08 23:35 | 33.12256 | -117.31167 | 2048 ft | 128 kts | 256° |
| 2026-05-08 23:35 | 33.12029 | -117.32194 | 2581 ft | 128 kts | 256° |
| 2026-05-08 23:36 | 33.11802 | -117.33222 | 3123 ft | 128 kts | 256° |
| 2026-05-08 23:36 | 33.11579 | -117.34231 | 3641 ft | 127 kts | 256° |
| 2026-05-08 23:36 | 33.11354 | -117.35252 | 4151 ft | 127 kts | 256° |
| 2026-05-08 23:36 | 33.11107 | -117.36376 | 4283 ft | 157 kts | 256° |
| 2026-05-08 23:37 | 33.10814 | -117.37750 | 4313 ft | 184 kts | 256° |
| 2026-05-08 23:37 | 33.10475 | -117.39347 | 4209 ft | 208 kts | 256° |
| 2026-05-08 23:37 | 33.10107 | -117.41086 | 4028 ft | 225 kts | 256° |
| 2026-05-08 23:37 | 33.09725 | -117.42893 | 4086 ft | 226 kts | 256° |
| 2026-05-08 23:38 | 33.09339 | -117.44720 | 4088 ft | 229 kts | 256° |
| 2026-05-08 23:38 | 33.08948 | -117.46568 | 4089 ft | 230 kts | 256° |
| 2026-05-08 23:38 | 33.08557 | -117.48422 | 4089 ft | 231 kts | 256° |
| 2026-05-08 23:38 | 33.08163 | -117.50286 | 4089 ft | 231 kts | 256° |
| 2026-05-08 23:39 | 33.07796 | -117.52149 | 4087 ft | 230 kts | 261° |
| 2026-05-08 23:39 | 33.07697 | -117.54000 | 4469 ft | 213 kts | 269° |
| 2026-05-08 23:39 | 33.07636 | -117.55663 | 5197 ft | 188 kts | 265° |
| 2026-05-08 23:39 | 33.07523 | -117.57124 | 5893 ft | 172 kts | 265° |
| 2026-05-08 23:40 | 33.07417 | -117.58540 | 6277 ft | 175 kts | 265° |
| 2026-05-08 23:40 | 33.07309 | -117.59988 | 6690 ft | 176 kts | 265° |
| 2026-05-08 23:40 | 33.07203 | -117.61446 | 7094 ft | 177 kts | 265° |
| 2026-05-08 23:40 | 33.07093 | -117.62915 | 7490 ft | 178 kts | 265° |
| 2026-05-08 23:41 | 33.06985 | -117.64392 | 7884 ft | 179 kts | 265° |
| 2026-05-08 23:41 | 33.06873 | -117.65878 | 8272 ft | 180 kts | 265° |
| 2026-05-08 23:41 | 33.06762 | -117.67372 | 8654 ft | 181 kts | 265° |
| 2026-05-08 23:41 | 33.06649 | -117.68874 | 9030 ft | 183 kts | 265° |
| 2026-05-08 23:42 | 33.06537 | -117.70388 | 9404 ft | 184 kts | 265° |
| 2026-05-08 23:42 | 33.06525 | -117.71906 | 9748 ft | 185 kts | 280° |
| 2026-05-08 23:42 | 33.06995 | -117.73346 | 9994 ft | 193 kts | 300° |
| 2026-05-08 23:42 | 33.07949 | -117.74573 | 10005 ft | 210 kts | 320° |
| 2026-05-08 23:43 | 33.09108 | -117.75712 | 10009 ft | 221 kts | 319° |
| 2026-05-08 23:43 | 33.10294 | -117.76929 | 10011 ft | 229 kts | 318° |
| 2026-05-08 23:43 | 33.11518 | -117.78179 | 10006 ft | 234 kts | 319° |
| 2026-05-08 23:43 | 33.12747 | -117.79427 | 10009 ft | 236 kts | 319° |
| 2026-05-08 23:44 | 33.14002 | -117.80703 | 10005 ft | 238 kts | 319° |
| 2026-05-08 23:44 | 33.15264 | -117.81987 | 10006 ft | 239 kts | 319° |
| 2026-05-08 23:44 | 33.16530 | -117.83278 | 10006 ft | 239 kts | 319° |
| 2026-05-08 23:44 | 33.17796 | -117.84568 | 10006 ft | 239 kts | 319° |
| 2026-05-08 23:45 | 33.19105 | -117.85790 | 10001 ft | 240 kts | 328° |
| 2026-05-08 23:45 | 33.20656 | -117.86518 | 9995 ft | 241 kts | 345° |
| 2026-05-08 23:45 | 33.22301 | -117.86913 | 9996 ft | 241 kts | 347° |
| 2026-05-08 23:45 | 33.23952 | -117.87323 | 9997 ft | 242 kts | 347° |
| 2026-05-08 23:46 | 33.25597 | -117.87737 | 9997 ft | 242 kts | 347° |
| 2026-05-08 23:46 | 33.27251 | -117.88148 | 9997 ft | 242 kts | 347° |
| 2026-05-08 23:46 | 33.28900 | -117.88558 | 9997 ft | 242 kts | 347° |
| 2026-05-08 23:46 | 33.30550 | -117.88968 | 9997 ft | 242 kts | 347° |
| 2026-05-08 23:47 | 33.32179 | -117.89377 | 9997 ft | 242 kts | 347° |
| 2026-05-08 23:47 | 33.33826 | -117.89795 | 9997 ft | 242 kts | 347° |
| 2026-05-08 23:47 | 33.35475 | -117.90205 | 9997 ft | 242 kts | 347° |
| 2026-05-08 23:47 | 33.37125 | -117.90617 | 9997 ft | 242 kts | 347° |
| 2026-05-08 23:48 | 33.38691 | -117.91298 | 9988 ft | 240 kts | 329° |
| 2026-05-08 23:48 | 33.40032 | -117.92471 | 9990 ft | 239 kts | 320° |
| 2026-05-08 23:48 | 33.41332 | -117.93714 | 9991 ft | 239 kts | 321° |
| 2026-05-08 23:48 | 33.42643 | -117.94945 | 9991 ft | 240 kts | 321° |
| 2026-05-08 23:49 | 33.43955 | -117.96182 | 9991 ft | 240 kts | 321° |
| 2026-05-08 23:49 | 33.45264 | -117.97420 | 9991 ft | 240 kts | 321° |
| 2026-05-08 23:49 | 33.46574 | -117.98660 | 9992 ft | 240 kts | 321° |
| 2026-05-08 23:49 | 33.47885 | -117.99900 | 9992 ft | 240 kts | 321° |
| 2026-05-08 23:50 | 33.49196 | -118.01141 | 9992 ft | 240 kts | 321° |
| 2026-05-08 23:50 | 33.50490 | -118.02365 | 9992 ft | 240 kts | 321° |
| 2026-05-08 23:50 | 33.51799 | -118.03606 | 9992 ft | 240 kts | 321° |
| 2026-05-08 23:50 | 33.53108 | -118.04849 | 9992 ft | 240 kts | 321° |
| 2026-05-08 23:51 | 33.54419 | -118.06091 | 9992 ft | 240 kts | 321° |
| 2026-05-08 23:51 | 33.55728 | -118.07335 | 9992 ft | 240 kts | 321° |
| 2026-05-08 23:51 | 33.57040 | -118.08579 | 9991 ft | 240 kts | 321° |
| 2026-05-08 23:51 | 33.58350 | -118.09823 | 9992 ft | 240 kts | 320° |
| 2026-05-08 23:52 | 33.59660 | -118.11068 | 9992 ft | 240 kts | 321° |
| 2026-05-08 23:52 | 33.60972 | -118.12313 | 9992 ft | 240 kts | 321° |
| 2026-05-08 23:52 | 33.62282 | -118.13558 | 9992 ft | 240 kts | 321° |
| 2026-05-08 23:52 | 33.63593 | -118.14804 | 9992 ft | 240 kts | 321° |
| 2026-05-08 23:53 | 33.64932 | -118.16080 | 9484 ft | 256 kts | 321° |
| 2026-05-08 23:53 | 33.66358 | -118.17439 | 8307 ft | 263 kts | 321° |
| 2026-05-08 23:53 | 33.67794 | -118.18802 | 7140 ft | 256 kts | 321° |
| 2026-05-08 23:53 | 33.69088 | -118.20032 | 7042 ft | 231 kts | 320° |
| 2026-05-08 23:54 | 33.70335 | -118.21224 | 7035 ft | 229 kts | 320° |
| 2026-05-08 23:54 | 33.71582 | -118.22414 | 7037 ft | 228 kts | 320° |
| 2026-05-08 23:54 | 33.72825 | -118.23599 | 7036 ft | 227 kts | 320° |
| 2026-05-08 23:55 | 33.75300 | -118.25962 | 7037 ft | 227 kts | 320° |
| 2026-05-08 23:55 | 33.76536 | -118.27142 | 7037 ft | 227 kts | 320° |
| 2026-05-08 23:55 | 33.77776 | -118.28326 | 7037 ft | 227 kts | 320° |
| 2026-05-08 23:55 | 33.79011 | -118.29506 | 7037 ft | 227 kts | 320° |
| 2026-05-08 23:56 | 33.80249 | -118.30690 | 7037 ft | 227 kts | 320° |
| 2026-05-08 23:56 | 33.81468 | -118.31854 | 7037 ft | 227 kts | 320° |
| 2026-05-08 23:56 | 33.82723 | -118.33054 | 7037 ft | 227 kts | 320° |
| 2026-05-08 23:56 | 33.83940 | -118.34218 | 7037 ft | 227 kts | 320° |
| 2026-05-08 23:57 | 33.85177 | -118.35402 | 7036 ft | 227 kts | 320° |
| 2026-05-08 23:57 | 33.86412 | -118.36587 | 7036 ft | 227 kts | 320° |
| 2026-05-08 23:57 | 33.87646 | -118.37769 | 7036 ft | 227 kts | 320° |
| 2026-05-08 23:57 | 33.88882 | -118.38953 | 7037 ft | 227 kts | 320° |
| 2026-05-08 23:58 | 33.90114 | -118.40134 | 7037 ft | 227 kts | 320° |
| 2026-05-08 23:58 | 33.91351 | -118.41321 | 7037 ft | 227 kts | 320° |
| 2026-05-08 23:58 | 33.92589 | -118.42511 | 7037 ft | 227 kts | 320° |
| 2026-05-08 23:58 | 33.93874 | -118.43606 | 7039 ft | 226 kts | 330° |
| 2026-05-08 23:59 | 33.95264 | -118.44502 | 7039 ft | 226 kts | 330° |
| 2026-05-08 23:59 | 33.96643 | -118.45423 | 7039 ft | 227 kts | 329° |
| 2026-05-08 23:59 | 33.98006 | -118.46342 | 7040 ft | 227 kts | 330° |
| 2026-05-08 23:59 | 33.99389 | -118.47266 | 7041 ft | 228 kts | 330° |
| 2026-05-09 00:00 | 34.00815 | -118.48220 | 6805 ft | 236 kts | 330° |
| 2026-05-09 00:00 | 34.02253 | -118.49183 | 6513 ft | 242 kts | 330° |
| 2026-05-09 00:00 | 34.03736 | -118.50176 | 6214 ft | 245 kts | 330° |
| 2026-05-09 00:00 | 34.05220 | -118.51169 | 6068 ft | 240 kts | 330° |
| 2026-05-09 00:01 | 34.06658 | -118.52133 | 6064 ft | 234 kts | 330° |
| 2026-05-09 00:01 | 34.08066 | -118.53079 | 6062 ft | 230 kts | 330° |
| 2026-05-09 00:01 | 34.09462 | -118.54019 | 6060 ft | 228 kts | 330° |
| 2026-05-09 00:01 | 34.10845 | -118.54945 | 6059 ft | 227 kts | 330° |
| 2026-05-09 00:02 | 34.12226 | -118.55870 | 6059 ft | 226 kts | 329° |
| 2026-05-09 00:02 | 34.13603 | -118.56796 | 6041 ft | 227 kts | 330° |
| 2026-05-09 00:02 | 34.15002 | -118.57735 | 5893 ft | 233 kts | 329° |
| 2026-05-09 00:02 | 34.16425 | -118.58691 | 5741 ft | 235 kts | 330° |
| 2026-05-09 00:03 | 34.17856 | -118.59652 | 5593 ft | 236 kts | 330° |
| 2026-05-09 00:03 | 34.19283 | -118.60579 | 5443 ft | 235 kts | 334° |
| 2026-05-09 00:03 | 34.20874 | -118.61054 | 5273 ft | 238 kts | 353° |
| 2026-05-09 00:03 | 34.22541 | -118.61000 | 5020 ft | 242 kts | 3° |
| 2026-05-09 00:04 | 34.24218 | -118.60815 | 4767 ft | 241 kts | 8° |
| 2026-05-09 00:04 | 34.25570 | -118.59698 | 4250 ft | 238 kts | 63° |
| 2026-05-09 00:04 | 34.25169 | -118.58040 | 3813 ft | 221 kts | 158° |
| 2026-05-09 00:04 | 34.23922 | -118.57260 | 3812 ft | 188 kts | 148° |
| 2026-05-09 00:05 | 34.22920 | -118.56426 | 3799 ft | 162 kts | 146° |
| 2026-05-09 00:05 | 34.22039 | -118.55737 | 3788 ft | 137 kts | 149° |
| 2026-05-09 00:05 | 34.21334 | -118.55191 | 3767 ft | 109 kts | 149° |
| 2026-05-09 00:05 | 34.20747 | -118.54732 | 3726 ft | 97 kts | 150° |
| 2026-05-09 00:06 | 34.20244 | -118.53985 | 3748 ft | 138 kts | 120° |
| 2026-05-09 00:06 | 34.19971 | -118.52786 | 3801 ft | 155 kts | 88° |
| 2026-05-09 00:06 | 34.19980 | -118.51716 | 3805 ft | 102 kts | 92° |
| 2026-05-09 00:06 | 34.19960 | -118.50841 | 3681 ft | 124 kts | 91° |
| 2026-05-09 00:07 | 34.19948 | -118.49825 | 3447 ft | 108 kts | 90° |
| 2026-05-09 00:07 | 34.19935 | -118.48974 | 3154 ft | 97 kts | 91° |
| 2026-05-09 00:07 | 34.19929 | -118.48180 | 2867 ft | 96 kts | 90° |
| 2026-05-09 00:07 | 34.19915 | -118.47363 | 2592 ft | 98 kts | 90° |
| 2026-05-09 00:08 | 34.19912 | -118.46820 | 2415 ft | 98 kts | 90° |
| 2026-05-09 00:08 | 34.19898 | -118.45728 | 2055 ft | 99 kts | 90° |
| 2026-05-09 00:08 | 34.19887 | -118.44902 | 1839 ft | 95 kts | 92° |
| 2026-05-09 00:08 | 34.19875 | -118.44080 | 1721 ft | 99 kts | 91° |
| 2026-05-09 00:09 | 34.19866 | -118.43534 | 1736 ft | 97 kts | 91° |
| 2026-05-09 00:09 | 34.19866 | -118.42729 | 1752 ft | 98 kts | 89° |
| 2026-05-09 00:09 | 34.19876 | -118.41909 | 1709 ft | 97 kts | 88° |
| 2026-05-09 00:09 | 34.19891 | -118.41103 | 1686 ft | 96 kts | 89° |
| 2026-05-09 00:10 | 34.19882 | -118.40297 | 1615 ft | 95 kts | 94° |
| 2026-05-09 00:10 | 34.19848 | -118.39499 | 1469 ft | 96 kts | 92° |
| 2026-05-09 00:10 | 34.19826 | -118.38690 | 1288 ft | 96 kts | 92° |
| 2026-05-09 00:10 | 34.19811 | -118.37883 | 1073 ft | 93 kts | 90° |
| 2026-05-09 00:11 | 34.19796 | -118.37119 | 847 ft | 90 kts | 92° |
| 2026-05-09 00:11 | 34.19787 | -118.36426 | 732 ft | 72 kts | 90° |
| 2026-05-09 00:11 | 34.19782 | -118.35985 | 723 ft | 39 kts | 90° |
| 2026-05-09 00:11 | 34.19811 | -118.35800 | 721 ft | 15 kts | 4° |
| 2026-05-09 00:12 | 34.19882 | -118.35760 | 721 ft | 9 kts | 74° |
| 2026-05-09 00:12 | 34.19882 | -118.35693 | 723 ft | 13 kts | 91° |
| 2026-05-09 00:12 | 34.19883 | -118.35604 | 724 ft | 8 kts | 91° |
| 2026-05-09 00:12 | 34.19882 | -118.35503 | 723 ft | 14 kts | 91° |
| 2026-05-09 00:13 | 34.19893 | -118.35424 | 721 ft | 7 kts | 19° |
| 2026-05-09 00:13 | 34.19903 | -118.35423 | 720 ft | 0 kts | 352° |